createdAt,value
2022-08-07T00:00:14.847Z,32.44
2022-08-07T00:02:48.571Z,32.16
2022-08-07T00:05:18.616Z,32.38
2022-08-07T00:07:48.636Z,32.33
2022-08-07T00:10:31.584Z,32.36
2022-08-07T00:13:17.478Z,32.18
2022-08-07T00:15:55.198Z,32.10
2022-08-07T00:18:28.433Z,31.89
2022-08-07T00:21:01.497Z,32.15
2022-08-07T00:23:33.223Z,32.61
2022-08-07T00:26:13.317Z,32.64
2022-08-07T00:28:58.901Z,32.24
2022-08-07T00:31:37.364Z,32.26
2022-08-07T00:34:09.688Z,32.35
2022-08-07T00:36:42.994Z,32.24
2022-08-07T00:39:16.472Z,32.35
2022-08-07T00:42:05.001Z,32.75
2022-08-07T00:44:35.675Z,32.63
2022-08-07T00:48:07.556Z,32.86
2022-08-07T00:50:19.825Z,33.13
2022-08-07T00:52:51.253Z,32.65
2022-08-07T00:55:25.493Z,32.58
2022-08-07T00:58:16.063Z,32.76
2022-08-07T01:00:53.568Z,33.30
2022-08-07T01:03:55.708Z,33.44
2022-08-07T01:06:15.855Z,33.22
2022-08-07T01:08:53.229Z,33.21
2022-08-07T01:12:23.478Z,33.38
2022-08-07T01:14:17.090Z,33.26
2022-08-07T01:16:51.514Z,33.41
2022-08-07T01:19:24.886Z,33.65
2022-08-07T01:21:59.272Z,33.83
2022-08-07T01:24:35.376Z,33.38
2022-08-07T01:27:06.516Z,33.44
2022-08-07T01:29:50.641Z,33.50
2022-08-07T01:32:23.057Z,33.42
2022-08-07T01:34:57.302Z,33.63
2022-08-07T01:37:30.462Z,33.33
2022-08-07T01:40:06.689Z,33.62
2022-08-07T01:42:57.564Z,33.40
2022-08-07T01:45:37.285Z,33.48
2022-08-07T01:48:19.710Z,33.81
2022-08-07T01:50:57.291Z,33.72
2022-08-07T01:54:09.241Z,33.87
2022-08-07T01:56:28.965Z,33.92
2022-08-07T01:59:08.047Z,33.92
2022-08-07T02:02:00.160Z,34.05
2022-08-07T02:04:55.670Z,34.26
2022-08-07T02:07:36.241Z,34.64
2022-08-07T02:10:27.522Z,34.21
2022-08-07T02:13:04.154Z,34.25
2022-08-07T02:15:54.567Z,34.40
2022-08-07T02:18:46.824Z,34.36
2022-08-07T02:21:19.061Z,34.47
2022-08-07T02:23:49.677Z,34.56
2022-08-07T02:26:33.857Z,34.43
2022-08-07T02:29:07.663Z,34.50
2022-08-07T02:31:45.663Z,34.59
2022-08-07T02:34:18.969Z,34.83
2022-08-07T02:36:55.452Z,35.03
2022-08-07T02:39:43.003Z,34.84
2022-08-07T02:42:21.338Z,34.72
2022-08-07T02:44:55.530Z,34.89
2022-08-07T02:47:44.895Z,34.98
2022-08-07T02:50:18.804Z,34.99
2022-08-07T02:53:01.020Z,35.01
2022-08-07T02:56:04.371Z,34.99
2022-08-07T02:58:33.510Z,35.14
2022-08-07T03:01:10.435Z,35.12
2022-08-07T03:03:50.997Z,35.09
2022-08-07T03:06:33.046Z,35.40
2022-08-07T03:09:05.685Z,35.45
2022-08-07T03:11:38.800Z,35.27
2022-08-07T03:14:15.089Z,35.61
2022-08-07T03:16:45.613Z,35.56
2022-08-07T03:19:15.691Z,35.34
2022-08-07T03:21:50.610Z,35.61
2022-08-07T03:24:26.858Z,35.41
2022-08-07T03:27:04.658Z,35.53
2022-08-07T03:29:51.062Z,35.56
2022-08-07T03:32:29.790Z,35.75
2022-08-07T03:35:17.836Z,36.52
2022-08-07T03:37:55.157Z,36.04
2022-08-07T03:40:36.800Z,36.71
2022-08-07T03:43:14.579Z,36.51
2022-08-07T03:45:52.049Z,36.34
2022-08-07T03:48:29.790Z,36.81
2022-08-07T03:51:01.010Z,37.40
2022-08-07T03:54:32.821Z,37.33
2022-08-07T03:56:33.307Z,36.57
2022-08-07T03:59:09.888Z,36.93
2022-08-07T04:01:49.188Z,37.00
2022-08-07T04:04:25.110Z,37.56
2022-08-07T04:07:00.591Z,36.93
2022-08-07T04:09:45.153Z,37.13
2022-08-07T04:12:26.703Z,37.18
2022-08-07T04:15:01.082Z,37.39
2022-08-07T04:18:11.286Z,37.58
2022-08-07T04:20:27.763Z,36.94
2022-08-07T04:23:01.583Z,37.91
2022-08-07T04:25:35.933Z,37.61
2022-08-07T04:28:13.307Z,37.82
2022-08-07T04:30:57.250Z,38.08
2022-08-07T04:33:38.870Z,38.10
2022-08-07T04:36:11.139Z,38.18
2022-08-07T04:38:42.273Z,38.21
2022-08-07T04:41:18.232Z,38.30
2022-08-07T04:44:14.472Z,37.80
2022-08-07T04:47:04.705Z,37.69
2022-08-07T04:49:57.825Z,38.16
2022-08-07T04:52:51.070Z,38.04
2022-08-07T04:58:23.669Z,37.61
2022-08-07T04:58:42.306Z,37.69
2022-08-07T05:01:20.693Z,37.46
2022-08-07T05:04:06.816Z,37.14
2022-08-07T05:06:51.479Z,36.60
2022-08-07T05:09:45.589Z,36.33
2022-08-07T05:12:26.994Z,36.45
2022-08-07T05:15:21.596Z,35.87
2022-08-07T05:18:01.586Z,35.94
2022-08-07T05:20:46.657Z,35.78
2022-08-07T05:23:31.031Z,36.17
2022-08-07T05:26:18.732Z,36.25
2022-08-07T05:28:58.999Z,36.27
2022-08-07T05:31:38.548Z,36.32
2022-08-07T05:34:16.372Z,35.52
2022-08-07T05:36:52.970Z,36.02
2022-08-07T05:40:06.374Z,35.98
2022-08-07T05:42:33.383Z,35.42
2022-08-07T05:45:26.221Z,34.75
2022-08-07T05:48:03.175Z,34.67
2022-08-07T05:50:47.367Z,35.44
2022-08-07T05:54:12.983Z,34.23
2022-08-07T05:56:16.173Z,35.60
2022-08-07T05:58:52.726Z,35.03
2022-08-07T06:01:34.841Z,33.97
2022-08-07T06:04:08.918Z,33.68
2022-08-07T06:06:46.041Z,34.08
2022-08-07T06:09:20.286Z,33.77
2022-08-07T06:12:18.473Z,33.45
2022-08-07T06:15:02.961Z,34.08
2022-08-07T06:17:41.167Z,34.26
2022-08-07T06:20:25.560Z,33.13
2022-08-07T06:23:46.663Z,33.88
2022-08-07T06:26:04.811Z,32.52
2022-08-07T06:28:52.815Z,32.77
2022-08-07T06:31:46.677Z,32.30
2022-08-07T06:34:23.024Z,32.76
2022-08-07T06:36:56.129Z,33.43
2022-08-07T06:40:17.951Z,33.43
2022-08-07T06:42:35.252Z,32.41
2022-08-07T06:45:19.677Z,31.92
2022-08-07T06:48:00.097Z,32.30
2022-08-07T06:50:39.674Z,32.45
2022-08-07T06:53:18.539Z,31.57
2022-08-07T06:56:15.517Z,31.93
2022-08-07T07:00:13.716Z,30.94
2022-08-07T07:01:51.130Z,30.85
2022-08-07T07:04:28.270Z,30.09
2022-08-07T07:07:19.075Z,31.06
2022-08-07T07:09:57.128Z,30.17
2022-08-07T07:12:37.998Z,30.84
2022-08-07T07:15:26.374Z,30.61
2022-08-07T07:18:12.898Z,31.01
2022-08-07T07:20:49.072Z,30.86
2022-08-07T07:24:08.443Z,30.35
2022-08-07T07:26:33.836Z,29.69
2022-08-07T07:29:39.079Z,29.63
2022-08-07T07:32:04.700Z,29.45
2022-08-07T07:34:41.507Z,30.45
2022-08-07T07:37:21.470Z,29.61
2022-08-07T07:39:55.575Z,29.05
2022-08-07T07:42:32.754Z,29.95
2022-08-07T07:45:04.539Z,28.33
2022-08-07T07:47:51.851Z,29.16
2022-08-07T07:50:34.580Z,28.31
2022-08-07T07:53:20.499Z,28.57
2022-08-07T07:55:57.774Z,29.43
2022-08-07T07:58:40.538Z,28.76
2022-08-07T08:02:02.856Z,27.37
2022-08-07T08:04:10.163Z,27.00
2022-08-07T08:06:52.040Z,28.29
2022-08-07T08:09:29.523Z,27.72
2022-08-07T08:12:05.978Z,27.40
2022-08-07T08:14:37.401Z,27.98
2022-08-07T08:17:55.654Z,26.29
2022-08-07T08:20:17.829Z,27.49
2022-08-07T08:23:09.797Z,27.57
2022-08-07T08:25:56.225Z,25.61
2022-08-07T08:28:38.518Z,26.10
2022-08-07T08:31:18.311Z,27.23
2022-08-07T08:34:04.110Z,27.29
2022-08-07T08:36:36.912Z,27.39
2022-08-07T08:39:11.877Z,27.15
2022-08-07T08:41:57.286Z,28.01
2022-08-07T08:44:37.284Z,27.53
2022-08-07T08:47:25.053Z,25.87
2022-08-07T08:50:06.474Z,25.53
2022-08-07T08:52:40.815Z,25.68
2022-08-07T08:55:54.236Z,26.64
2022-08-07T08:58:29.978Z,25.74
2022-08-07T09:01:14.739Z,26.75
2022-08-07T09:03:55.645Z,26.40
2022-08-07T09:06:47.718Z,25.43
2022-08-07T09:09:38.554Z,25.02
2022-08-07T09:12:20.246Z,25.67
2022-08-07T09:16:20.575Z,24.48
2022-08-07T09:18:22.554Z,24.97
2022-08-07T09:21:02.310Z,25.62
2022-08-07T09:24:33.685Z,24.25
2022-08-07T09:26:51.051Z,23.65
2022-08-07T09:30:04.372Z,24.56
2022-08-07T09:32:31.508Z,24.52
2022-08-07T09:36:04.889Z,22.71
2022-08-07T09:38:12.330Z,22.72
2022-08-07T09:40:55.834Z,23.69
2022-08-07T09:44:03.054Z,23.80
2022-08-07T09:47:52.378Z,22.42
2022-08-07T09:50:01.223Z,22.19
2022-08-07T09:52:42.942Z,22.49
2022-08-07T09:55:29.757Z,23.26
2022-08-07T09:58:32.879Z,22.50
2022-08-07T10:01:52.374Z,23.17
2022-08-07T10:04:38.124Z,24.37
2022-08-07T10:07:53.055Z,24.43
2022-08-07T10:11:07.556Z,24.03
2022-08-07T10:14:00.686Z,24.05
2022-08-07T10:17:03.131Z,23.54
2022-08-07T10:20:01.000Z,23.22
2022-08-07T10:22:50.837Z,24.67
2022-08-07T10:25:42.724Z,24.08
2022-08-07T10:28:49.658Z,24.17
2022-08-07T10:31:40.929Z,23.65
2022-08-07T10:34:31.979Z,24.53
2022-08-07T10:37:26.330Z,24.61
2022-08-07T10:40:21.154Z,24.57
2022-08-07T10:43:03.589Z,24.69
2022-08-07T10:45:57.156Z,24.01
2022-08-07T10:48:39.209Z,24.27
2022-08-07T10:51:16.591Z,24.97
2022-08-07T10:54:16.065Z,23.52
2022-08-07T10:57:00.174Z,24.15
2022-08-07T10:59:45.326Z,23.75
2022-08-07T11:02:33.358Z,23.71
2022-08-07T11:05:16.590Z,22.49
2022-08-07T11:07:59.491Z,22.30
2022-08-07T11:10:43.667Z,22.28
2022-08-07T11:14:42.116Z,23.51
2022-08-07T11:16:25.582Z,23.03
2022-08-07T11:19:08.166Z,21.55
2022-08-07T11:21:47.296Z,23.44
2022-08-07T11:24:24.897Z,20.99
2022-08-07T11:27:04.775Z,23.27
2022-08-07T11:29:48.290Z,22.88
2022-08-07T11:32:31.091Z,22.59
2022-08-07T11:35:03.280Z,22.18
2022-08-07T11:38:10.526Z,22.00
2022-08-07T11:40:50.687Z,21.47
2022-08-07T11:43:41.596Z,20.99
2022-08-07T11:46:31.381Z,21.34
2022-08-07T11:49:50.368Z,21.34
2022-08-07T11:52:29.524Z,21.83
2022-08-07T11:56:08.692Z,21.63
2022-08-07T11:58:16.504Z,20.86
2022-08-07T12:01:04.442Z,22.98
2022-08-07T12:03:52.848Z,23.06
2022-08-07T12:06:39.223Z,23.10
2022-08-07T12:09:23.385Z,22.65
2022-08-07T12:12:10.192Z,22.32
2022-08-07T12:14:55.692Z,23.27
2022-08-07T12:17:59.333Z,22.93
2022-08-07T12:20:37.963Z,21.59
2022-08-07T12:24:07.298Z,21.42
2022-08-07T12:26:40.595Z,21.40
2022-08-07T12:29:38.333Z,21.73
2022-08-07T12:32:17.227Z,21.04
2022-08-07T12:34:56.238Z,22.01
2022-08-07T12:38:09.698Z,22.08
2022-08-07T12:40:47.481Z,21.66
2022-08-07T12:44:02.942Z,21.21
2022-08-07T12:46:26.448Z,21.60
2022-08-07T12:49:39.588Z,20.48
2022-08-07T12:52:14.377Z,20.59
2022-08-07T12:54:55.574Z,22.36
2022-08-07T12:58:01.327Z,22.05
2022-08-07T13:00:34.580Z,21.21
2022-08-07T13:03:52.780Z,21.42
2022-08-07T13:06:29.390Z,22.17
2022-08-07T13:09:33.388Z,21.34
2022-08-07T13:12:13.275Z,20.81
2022-08-07T13:14:55.209Z,20.54
2022-08-07T13:17:40.806Z,20.66
2022-08-07T13:20:18.373Z,21.47
2022-08-07T13:22:58.393Z,20.44
2022-08-07T13:25:43.161Z,20.46
2022-08-07T13:28:25.167Z,22.13
2022-08-07T13:31:02.101Z,21.15
2022-08-07T13:34:30.882Z,21.74
2022-08-07T13:36:48.072Z,21.87
2022-08-07T13:39:49.122Z,22.69
2022-08-07T13:42:24.756Z,21.67
2022-08-07T13:45:20.619Z,21.66
2022-08-07T13:48:07.732Z,22.20
2022-08-07T13:50:44.466Z,22.22
2022-08-07T13:53:35.859Z,22.35
2022-08-07T13:56:35.734Z,21.56
2022-08-07T13:59:16.690Z,21.61
2022-08-07T14:02:03.438Z,22.63
2022-08-07T14:04:48.912Z,21.95
2022-08-07T14:07:25.019Z,22.03
2022-08-07T14:10:14.898Z,21.31
2022-08-07T14:12:55.995Z,21.74
2022-08-07T14:15:40.152Z,22.45
2022-08-07T14:18:28.910Z,22.65
2022-08-07T14:21:21.071Z,22.28
2022-08-07T14:24:02.333Z,21.50
2022-08-07T14:26:40.745Z,21.89
2022-08-07T14:30:05.847Z,22.07
2022-08-07T14:32:20.535Z,21.73
2022-08-07T14:34:56.323Z,21.52
2022-08-07T14:37:36.360Z,21.08
2022-08-07T14:40:27.259Z,20.90
2022-08-07T14:43:57.074Z,21.39
2022-08-07T14:45:54.686Z,22.21
2022-08-07T14:48:32.627Z,21.97
2022-08-07T14:51:07.530Z,21.87
2022-08-07T14:54:05.797Z,22.06
2022-08-07T14:56:43.822Z,21.26
2022-08-07T15:00:03.521Z,21.39
2022-08-07T15:05:20.253Z,21.25
2022-08-07T15:07:55.224Z,21.01
2022-08-07T15:13:25.286Z,21.10
2022-08-07T15:16:00.955Z,21.65
2022-08-07T15:18:36.197Z,21.22
2022-08-07T15:21:44.379Z,21.39
2022-08-07T15:27:11.451Z,21.61
2022-08-07T15:30:09.681Z,21.25
2022-08-07T15:32:39.424Z,21.44
2022-08-07T15:35:16.781Z,21.73
2022-08-07T15:38:04.504Z,21.25
2022-08-07T15:41:22.995Z,21.42
2022-08-07T15:43:55.938Z,22.46
2022-08-07T15:46:32.314Z,22.69
2022-08-07T15:49:14.437Z,21.63
2022-08-07T15:54:39.724Z,21.60
2022-08-07T15:57:39.127Z,22.70
2022-08-07T16:00:06.296Z,22.64
2022-08-07T16:02:46.989Z,21.95
2022-08-07T16:05:20.367Z,22.29
2022-08-07T16:08:33.270Z,22.11
2022-08-07T16:11:03.957Z,21.67
2022-08-07T16:14:03.191Z,22.31
2022-08-07T16:16:56.788Z,22.24
2022-08-07T16:19:42.229Z,22.06
2022-08-07T16:22:54.542Z,21.94
2022-08-07T16:25:54.580Z,22.00
2022-08-07T16:29:18.246Z,21.97
2022-08-07T16:31:58.090Z,22.76
2022-08-07T16:34:39.592Z,21.89
2022-08-07T16:38:04.748Z,22.32
2022-08-07T16:41:01.774Z,22.21
2022-08-07T16:44:05.991Z,22.29
2022-08-07T16:47:28.863Z,22.55
2022-08-07T16:50:37.128Z,23.59
2022-08-07T16:54:03.005Z,23.25
2022-08-07T16:56:20.644Z,22.91
2022-08-07T16:59:15.016Z,22.84
2022-08-07T17:01:59.592Z,23.54
2022-08-07T17:04:57.415Z,23.33
2022-08-07T17:07:51.427Z,24.10
2022-08-07T17:10:36.265Z,23.09
2022-08-07T17:13:41.102Z,23.59
2022-08-07T17:16:25.557Z,23.24
2022-08-07T17:19:04.943Z,23.14
2022-08-07T17:21:50.670Z,22.05
2022-08-07T17:24:49.890Z,23.90
2022-08-07T17:27:37.129Z,22.21
2022-08-07T17:30:27.037Z,22.30
2022-08-07T17:34:32.748Z,22.13
2022-08-07T17:36:06.224Z,23.03
2022-08-07T17:38:55.374Z,23.23
2022-08-07T17:42:04.128Z,22.79
2022-08-07T17:44:33.933Z,23.67
2022-08-07T17:47:16.825Z,22.42
2022-08-07T17:49:56.145Z,22.97
2022-08-07T17:52:33.878Z,22.55
2022-08-07T17:55:13.367Z,22.83
2022-08-07T17:57:59.012Z,22.98
2022-08-07T18:00:48.875Z,23.06
2022-08-07T18:03:28.511Z,23.14
2022-08-07T18:06:38.694Z,23.54
2022-08-07T18:09:48.284Z,23.51
2022-08-07T18:12:30.621Z,23.14
2022-08-07T18:15:08.753Z,23.59
2022-08-07T18:18:47.449Z,23.23
2022-08-07T18:21:11.698Z,23.64
2022-08-07T18:23:57.238Z,23.49
2022-08-07T18:26:59.647Z,23.65
2022-08-07T18:30:04.671Z,23.92
2022-08-07T18:33:15.386Z,24.75
2022-08-07T18:35:57.431Z,25.25
2022-08-07T18:38:55.109Z,24.19
2022-08-07T18:41:48.030Z,24.45
2022-08-07T18:45:39.710Z,24.16
2022-08-07T18:47:44.588Z,24.05
2022-08-07T18:50:45.395Z,24.08
2022-08-07T18:53:36.987Z,23.97
2022-08-07T18:56:16.972Z,24.21
2022-08-07T18:59:46.712Z,24.40
2022-08-07T19:02:17.989Z,24.54
2022-08-07T19:05:15.460Z,24.32
2022-08-07T19:07:59.350Z,24.65
2022-08-07T19:10:39.795Z,25.88
2022-08-07T19:13:27.417Z,25.73
2022-08-07T19:16:43.018Z,26.13
2022-08-07T19:19:03.203Z,25.82
2022-08-07T19:21:56.168Z,25.47
2022-08-07T19:24:38.026Z,26.01
2022-08-07T19:28:29.663Z,26.51
2022-08-07T19:31:02.235Z,26.46
2022-08-07T19:33:12.809Z,26.03
2022-08-07T19:35:48.951Z,26.76
2022-08-07T19:38:22.625Z,26.46
2022-08-07T19:40:54.440Z,26.49
2022-08-07T19:43:43.645Z,26.56
2022-08-07T19:46:18.992Z,26.41
2022-08-07T19:48:54.637Z,27.25
2022-08-07T19:51:51.311Z,27.09
2022-08-07T19:54:35.150Z,27.04
2022-08-07T19:58:01.027Z,26.98
2022-08-07T20:00:10.591Z,27.29
2022-08-07T20:02:51.927Z,27.34
2022-08-07T20:05:29.596Z,27.33
2022-08-07T20:08:06.726Z,27.67
2022-08-07T20:10:55.629Z,27.63
2022-08-07T20:13:33.068Z,27.39
2022-08-07T20:16:15.667Z,27.00
2022-08-07T20:18:52.943Z,26.95
2022-08-07T20:21:25.147Z,27.73
2022-08-07T20:24:08.060Z,27.80
2022-08-07T20:26:49.978Z,27.92
2022-08-07T20:29:47.792Z,27.10
2022-08-07T20:32:22.348Z,27.47
2022-08-07T20:34:58.788Z,27.05
2022-08-07T20:37:37.146Z,27.93
2022-08-07T20:40:32.437Z,27.13
2022-08-07T20:43:09.494Z,27.48
2022-08-07T20:46:25.606Z,27.03
2022-08-07T20:48:57.865Z,27.53
2022-08-07T20:51:36.018Z,27.88
2022-08-07T20:54:12.211Z,27.89
2022-08-07T20:56:52.885Z,28.54
2022-08-07T21:00:04.657Z,28.51
2022-08-07T21:02:31.513Z,27.76
2022-08-07T21:05:04.557Z,28.11
2022-08-07T21:07:42.198Z,27.83
2022-08-07T21:10:25.237Z,28.43
2022-08-07T21:13:24.738Z,28.34
2022-08-07T21:16:11.759Z,27.88
2022-08-07T21:18:46.010Z,28.30
2022-08-07T21:21:18.159Z,28.44
2022-08-07T21:23:59.373Z,28.58
2022-08-07T21:26:36.832Z,28.42
2022-08-07T21:29:18.781Z,28.67
2022-08-07T21:32:43.760Z,28.45
2022-08-07T21:35:00.626Z,29.21
2022-08-07T21:37:58.054Z,29.04
2022-08-07T21:40:39.492Z,28.53
2022-08-07T21:43:13.485Z,28.77
2022-08-07T21:46:10.324Z,28.76
2022-08-07T21:48:56.444Z,28.83
2022-08-07T21:51:51.403Z,29.05
2022-08-07T21:54:38.760Z,29.29
2022-08-07T21:57:44.697Z,29.12
2022-08-07T22:00:22.649Z,28.99
2022-08-07T22:03:06.190Z,29.11
2022-08-07T22:05:48.623Z,29.14
2022-08-07T22:08:21.482Z,29.46
2022-08-07T22:11:11.220Z,29.52
2022-08-07T22:13:51.056Z,29.73
2022-08-07T22:16:42.655Z,29.45
2022-08-07T22:19:29.769Z,28.90
2022-08-07T22:22:27.405Z,29.13
2022-08-07T22:25:08.404Z,29.40
2022-08-07T22:28:07.675Z,29.33
2022-08-07T22:30:51.943Z,29.53
2022-08-07T22:33:52.750Z,29.69
2022-08-07T22:36:31.517Z,29.97
2022-08-07T22:39:07.081Z,29.55
2022-08-07T22:42:03.153Z,29.96
2022-08-07T22:44:36.767Z,29.64
2022-08-07T22:47:52.356Z,29.78
2022-08-07T22:50:39.073Z,29.58
2022-08-07T22:54:05.413Z,30.26
2022-08-07T22:56:28.837Z,29.99
2022-08-07T22:59:44.682Z,29.82
2022-08-07T23:02:32.936Z,29.76
2022-08-07T23:06:07.424Z,29.77
2022-08-07T23:08:51.622Z,29.85
2022-08-07T23:11:41.238Z,30.10
2022-08-07T23:14:30.523Z,30.10
2022-08-07T23:17:25.228Z,29.91
2022-08-07T23:20:40.719Z,30.00
2022-08-07T23:24:05.394Z,30.06
2022-08-07T23:26:50.722Z,30.21
2022-08-07T23:30:39.546Z,30.37
2022-08-07T23:34:34.420Z,30.18
2022-08-07T23:35:57.404Z,30.18
2022-08-07T23:38:42.843Z,30.33
2022-08-07T23:41:47.531Z,30.33
2022-08-07T23:44:43.472Z,30.32
2022-08-07T23:47:31.511Z,30.43
2022-08-07T23:50:29.734Z,30.94
2022-08-07T23:53:08.442Z,30.74
2022-08-07T23:55:56.224Z,30.71
2022-08-07T23:58:35.085Z,30.61
